Time;durP1;ratioP1;P1;durP2;ratioP2;P2;SDS_P1;SDS_P2;PMS_P1;PMS_P2;Temp;Humidity;BMP_temperature;BMP_pressure;BME280_temperature;BME280_humidity;BME280_pressure;Samples;Min_cycle;Max_cycle;Signal;HPM_P1;HPM_P2
2023/07/16 00:00:18;;;;;;;1.00;1.00;;;21.30;99.90;;;21.65;nan;100316.13;5024047;28;20625;-71
2023/07/16 00:02:45;;;;;;;2.80;1.20;;;21.20;99.90;;;21.64;nan;100312.63;5019431;28;20617;-71
2023/07/16 00:05:15;;;;;;;1.60;1.50;;;21.20;99.90;;;21.62;nan;100311.16;5029000;28;20649;-71
2023/07/16 00:07:42;;;;;;;1.90;1.00;;;21.10;99.90;;;21.62;nan;100312.00;5028212;28;21282;-72
2023/07/16 00:10:09;;;;;;;1.43;1.07;;;21.10;99.90;;;21.67;nan;100335.31;5015813;28;21000;-70
2023/07/16 00:12:36;;;;;;;1.23;1.23;;;21.20;99.90;;;21.71;nan;100331.28;5023585;28;20627;-71
2023/07/16 00:15:06;;;;;;;1.67;1.57;;;21.20;99.90;;;21.76;nan;100344.00;5022050;28;21251;-70
2023/07/16 00:17:36;;;;;;;1.03;1.03;;;21.30;99.90;;;21.82;nan;100372.44;5028706;28;20620;-70
2023/07/16 00:20:04;;;;;;;0.90;0.90;;;21.40;99.90;;;21.87;nan;100396.66;5027232;28;21172;-69
2023/07/16 00:22:31;;;;;;;1.43;1.33;;;21.40;99.90;;;21.83;nan;100400.69;5019332;28;20629;-67
2023/07/16 00:24:58;;;;;;;2.27;1.20;;;21.40;99.90;;;21.83;nan;100387.41;5028009;28;20640;-70
2023/07/16 00:27:25;;;;;;;1.10;1.10;;;21.40;99.90;;;21.77;nan;100380.97;5015359;28;20613;-70
2023/07/16 00:29:52;;;;;;;1.00;1.00;;;21.40;99.90;;;21.77;nan;100374.84;5015547;28;20655;-71
2023/07/16 00:32:19;;;;;;;1.60;1.50;;;21.30;99.90;;;21.82;nan;100360.03;5029535;28;20633;-72
2023/07/16 00:34:46;;;;;;;0.90;0.90;;;21.30;99.90;;;21.90;nan;100340.47;5021872;28;20737;-70
2023/07/16 00:37:13;;;;;;;1.43;1.30;;;21.40;99.90;;;21.91;nan;100350.09;5010397;28;21165;-71
2023/07/16 00:39:40;;;;;;;0.90;0.90;;;21.50;99.90;;;21.96;nan;100345.03;5008194;28;21106;-69
2023/07/16 00:42:08;;;;;;;2.83;1.27;;;21.50;99.90;;;21.96;nan;100353.00;5022278;28;20617;-72
2023/07/16 00:44:35;;;;;;;0.97;0.97;;;21.50;99.90;;;22.03;nan;100333.47;5014876;28;20775;-69
2023/07/16 00:47:02;;;;;;;1.47;1.20;;;21.60;99.90;;;22.01;nan;100321.38;5017874;28;20633;-69
2023/07/16 00:49:30;;;;;;;1.83;1.10;;;21.50;99.90;;;21.94;nan;100355.84;5018000;28;20679;-69
2023/07/16 00:51:58;;;;;;;1.27;1.17;;;21.50;99.90;;;21.95;nan;100354.84;5024443;28;20644;-70
2023/07/16 00:54:26;;;;;;;1.30;1.20;;;21.50;99.90;;;22.01;nan;100337.31;5027477;28;20671;-72
2023/07/16 00:56:53;;;;;;;1.10;1.10;;;21.50;99.90;;;22.03;nan;100351.22;5026082;28;20649;-68
2023/07/16 00:59:21;;;;;;;0.93;0.93;;;21.60;99.90;;;22.07;nan;100373.75;5015747;28;20660;-72
2023/07/16 01:01:48;;;;;;;1.13;1.13;;;21.60;99.90;;;22.12;nan;100397.91;5029043;28;20644;-71
2023/07/16 01:04:15;;;;;;;0.77;0.77;;;21.60;99.90;;;22.16;nan;100405.31;5031766;28;21040;-70
2023/07/16 01:06:49;;;;;;;0.83;0.83;;;21.70;99.90;;;22.07;nan;100401.16;5033277;28;21195;-71
2023/07/16 01:09:19;;;;;;;0.97;0.97;;;21.70;99.90;;;21.95;nan;100391.22;5023248;28;21590;-70
2023/07/16 01:11:48;;;;;;;0.90;0.90;;;21.50;99.90;;;21.84;nan;100402.31;5031259;28;20690;-71
2023/07/16 01:14:17;;;;;;;1.03;1.03;;;21.40;99.90;;;21.80;nan;100393.06;5032221;28;21046;-70
2023/07/16 01:16:45;;;;;;;1.00;1.00;;;21.40;99.90;;;21.74;nan;100393.81;5034416;28;20682;-69
2023/07/16 01:19:13;;;;;;;1.10;1.10;;;21.30;99.90;;;21.69;nan;100407.66;5028984;28;20664;-70
2023/07/16 01:22:27;;;;;;;0.93;0.93;;;21.30;99.90;;;21.70;nan;100414.59;5032592;28;20655;-71
2023/07/16 01:25:32;;;;;;;0.93;0.93;;;21.30;99.90;;;21.63;nan;100419.84;5019470;28;20627;-70
2023/07/16 01:28:22;;;;;;;1.00;1.00;;;21.20;99.90;;;21.52;nan;100427.47;5030899;28;20655;-70
2023/07/16 01:30:52;;;;;;;0.60;0.60;;;21.10;99.90;;;21.45;nan;100431.84;5012487;28;20630;-71
2023/07/16 01:33:21;;;;;;;2.20;0.77;;;21.00;99.90;;;21.42;nan;100434.91;5031579;28;20635;-69
2023/07/16 01:35:50;;;;;;;0.70;0.70;;;21.00;99.90;;;21.39;nan;100428.13;5031305;28;20667;-70
2023/07/16 01:38:18;;;;;;;1.20;1.10;;;21.00;99.90;;;21.35;nan;100440.13;5032830;28;20644;-72
2023/07/16 01:40:45;;;;;;;0.90;0.90;;;20.90;99.90;;;21.36;nan;100443.59;5025882;28;20632;-72
2023/07/16 01:43:13;;;;;;;0.90;0.90;;;21.00;99.90;;;21.35;nan;100442.78;5032035;28;20608;-72
2023/07/16 01:45:40;;;;;;;0.97;0.77;;;20.90;99.90;;;21.34;nan;100434.97;5023488;28;20640;-69
2023/07/16 01:48:35;;;;;;;0.90;0.90;;;21.00;99.90;;;21.29;nan;100438.22;5028584;28;20671;-70
2023/07/16 01:51:04;;;;;;;0.70;0.70;;;20.90;99.90;;;21.29;nan;100438.22;5007155;28;20604;-71
2023/07/16 01:53:31;;;;;;;0.77;0.77;;;20.90;99.90;;;21.29;nan;100440.03;5013670;28;20616;-72
2023/07/16 01:56:00;;;;;;;0.97;0.97;;;20.90;99.90;;;21.29;nan;100443.50;5026444;28;20641;-71
2023/07/16 01:58:28;;;;;;;0.90;0.90;;;20.90;99.90;;;21.30;nan;100441.66;5032013;28;20647;-70
2023/07/16 02:00:55;;;;;;;1.10;0.87;;;20.90;99.90;;;21.29;nan;100435.56;5022653;28;20993;-70
2023/07/16 02:03:22;;;;;;;1.13;1.13;;;20.90;99.90;;;21.32;nan;100440.47;5024845;28;20628;-70
2023/07/16 02:05:49;;;;;;;1.00;0.87;;;20.90;99.90;;;21.37;nan;100445.22;5024366;28;21525;-69
2023/07/16 02:08:19;;;;;;;1.10;1.10;;;20.90;99.90;;;21.34;nan;100449.06;5019298;28;20664;-70
2023/07/16 02:10:49;;;;;;;0.93;0.93;;;20.90;99.90;;;21.31;nan;100452.13;5021626;28;20629;-70
2023/07/16 02:13:16;;;;;;;3.53;0.70;;;20.90;99.90;;;21.28;nan;100447.16;5011520;28;21208;-70
2023/07/16 02:15:44;;;;;;;1.10;0.80;;;20.90;99.90;;;21.19;nan;100448.25;5012069;28;20665;-70
2023/07/16 02:18:11;;;;;;;0.90;0.90;;;20.80;99.90;;;21.12;nan;100451.81;5032573;28;21356;-71
2023/07/16 02:20:38;;;;;;;0.90;0.90;;;20.70;99.90;;;21.11;nan;100466.09;5026793;28;20637;-70
2023/07/16 02:23:05;;;;;;;0.80;0.80;;;20.70;99.90;;;21.07;nan;100464.81;5022430;28;20645;-70
2023/07/16 02:25:33;;;;;;;0.77;0.77;;;20.70;99.90;;;20.99;nan;100470.16;5020096;28;20613;-70
2023/07/16 02:28:00;;;;;;;1.77;1.50;;;20.60;99.90;;;20.97;nan;100473.00;5027159;28;20656;-70
2023/07/16 02:30:27;;;;;;;0.60;0.60;;;20.60;99.90;;;20.91;nan;100471.09;5028702;28;20639;-69
2023/07/16 02:32:54;;;;;;;1.03;0.80;;;20.60;99.90;;;20.88;nan;100466.97;5032170;28;20604;-70
2023/07/16 02:35:21;;;;;;;0.73;0.73;;;20.50;99.90;;;20.87;nan;100475.91;5011331;28;20657;-71
2023/07/16 02:37:48;;;;;;;0.70;0.70;;;20.50;99.90;;;20.83;nan;100479.09;5020894;28;20675;-70
2023/07/16 02:40:15;;;;;;;0.67;0.67;;;20.50;99.90;;;20.78;nan;100481.47;5019534;28;20633;-70
2023/07/16 02:42:42;;;;;;;0.87;0.77;;;20.40;99.90;;;20.71;nan;100477.88;5015356;28;20606;-70
2023/07/16 02:45:09;;;;;;;0.70;0.70;;;20.30;99.90;;;20.66;nan;100481.06;5010045;28;21119;-71
2023/07/16 02:47:36;;;;;;;1.40;0.77;;;20.30;99.90;;;20.60;nan;100478.31;5010479;28;20594;-69
2023/07/16 02:50:04;;;;;;;2.87;0.80;;;20.20;99.90;;;20.55;nan;100486.00;5018887;28;20632;-70
2023/07/16 02:52:31;;;;;;;0.80;0.80;;;20.20;99.90;;;20.50;nan;100485.69;5031945;28;20686;-69
2023/07/16 02:54:58;;;;;;;2.13;1.20;;;20.10;99.90;;;20.43;nan;100493.50;5025764;28;21118;-69
2023/07/16 02:57:25;;;;;;;0.90;0.80;;;20.00;99.90;;;20.43;nan;100493.50;5009876;28;20640;-69
2023/07/16 02:59:52;;;;;;;0.83;0.83;;;20.00;99.90;;;20.41;nan;100492.88;5018869;28;20620;-69
2023/07/16 03:02:19;;;;;;;0.93;0.80;;;20.00;99.90;;;20.37;nan;100498.69;5032088;28;21185;-70
2023/07/16 03:04:46;;;;;;;0.67;0.67;;;20.00;99.90;;;20.25;nan;100500.13;5033422;28;20631;-70
2023/07/16 03:07:13;;;;;;;0.70;0.70;;;19.90;99.90;;;20.18;nan;100492.00;5029514;28;20619;-69
2023/07/16 03:09:40;;;;;;;0.80;0.80;;;19.80;99.90;;;20.11;nan;100515.72;5025478;28;20667;-69
2023/07/16 03:12:08;;;;;;;0.80;0.77;;;19.70;99.90;;;20.05;nan;100511.13;5026192;28;20617;-68
2023/07/16 03:14:35;;;;;;;1.20;1.10;;;19.70;99.90;;;20.02;nan;100519.41;5025629;28;20637;-69
2023/07/16 03:17:02;;;;;;;0.87;0.87;;;19.60;99.90;;;20.04;nan;100522.69;5028542;28;20679;-68
2023/07/16 03:19:29;;;;;;;1.43;1.10;;;19.70;99.90;;;19.98;nan;100527.88;5029645;28;20718;-69
2023/07/16 03:21:56;;;;;;;0.80;0.80;;;19.60;99.90;;;19.97;nan;100542.13;5022736;28;20632;-70
2023/07/16 03:24:23;;;;;;;0.93;0.93;;;19.60;99.90;;;19.92;nan;100532.03;5029598;28;20608;-70
2023/07/16 03:26:50;;;;;;;1.20;1.07;;;19.60;99.90;;;19.90;nan;100536.69;5028750;28;20639;-69
2023/07/16 03:29:18;;;;;;;1.50;1.13;;;19.50;99.90;;;19.89;nan;100536.88;5018900;28;20712;-70
2023/07/16 03:31:45;;;;;;;1.03;0.80;;;19.50;99.90;;;19.90;nan;100535.84;5018699;28;20648;-69
2023/07/16 03:34:13;;;;;;;0.87;0.87;;;19.50;99.90;;;19.91;nan;100534.88;5018485;28;20624;-70
2023/07/16 03:36:40;;;;;;;0.70;0.70;;;19.50;99.90;;;19.86;nan;100532.72;5029643;28;20652;-70
2023/07/16 03:39:07;;;;;;;1.83;1.00;;;19.50;99.90;;;19.88;nan;100535.19;5022749;28;20660;-70
2023/07/16 03:41:34;;;;;;;0.87;0.87;;;19.50;99.90;;;19.91;nan;100530.38;5030565;28;20620;-69
2023/07/16 03:44:01;;;;;;;0.83;0.83;;;19.50;99.90;;;19.94;nan;100532.69;5024253;28;21175;-70
2023/07/16 03:46:28;;;;;;;1.17;0.90;;;19.60;99.90;;;20.00;nan;100536.47;5022327;28;20624;-69
2023/07/16 03:48:55;;;;;;;0.80;0.80;;;19.60;99.90;;;20.02;nan;100531.81;5011276;28;20641;-70
2023/07/16 03:51:22;;;;;;;1.37;1.10;;;19.70;99.90;;;20.05;nan;100540.25;5022406;28;20643;-69
2023/07/16 03:53:49;;;;;;;1.27;1.17;;;19.70;99.90;;;20.09;nan;100535.44;5024421;28;20652;-71
2023/07/16 03:56:16;;;;;;;4.23;1.00;;;19.70;99.90;;;20.14;nan;100541.84;5025636;28;20667;-69
2023/07/16 03:58:43;;;;;;;0.93;0.90;;;19.80;99.90;;;20.21;nan;100542.00;5028944;28;21063;-69
2023/07/16 04:01:10;;;;;;;1.10;1.00;;;19.80;99.90;;;20.30;nan;100556.03;5030085;28;20642;-69
2023/07/16 04:03:37;;;;;;;1.33;1.23;;;19.90;99.90;;;20.38;nan;100558.66;5022905;28;20632;-69
2023/07/16 04:06:11;;;;;;;0.73;0.73;;;20.00;99.90;;;20.48;nan;100562.72;5027648;28;20962;-69
2023/07/16 04:08:38;;;;;;;1.20;1.10;;;20.10;99.90;;;20.62;nan;100566.44;5017132;28;20657;-70
2023/07/16 04:11:06;;;;;;;2.30;1.27;;;20.20;99.90;;;20.76;nan;100560.38;5029180;28;20616;-69
2023/07/16 04:13:33;;;;;;;1.40;1.00;;;20.30;99.90;;;20.89;nan;100568.56;5009133;28;21180;-70
2023/07/16 04:16:00;;;;;;;1.53;1.27;;;20.50;99.90;;;21.05;nan;100568.44;5009492;28;20665;-71
2023/07/16 04:18:27;;;;;;;1.10;1.00;;;20.60;99.90;;;21.20;nan;100571.97;5012334;28;20656;-70
2023/07/16 04:20:54;;;;;;;1.23;1.17;;;20.80;99.90;;;21.34;nan;100576.47;5010113;28;20694;-70
2023/07/16 04:23:22;;;;;;;0.90;0.90;;;20.90;99.90;;;21.50;nan;100594.06;5009577;28;20703;-70
2023/07/16 04:25:54;;;;;;;1.00;0.70;;;21.10;99.90;;;21.61;nan;100585.66;5018194;28;20651;-71
2023/07/16 04:28:21;;;;;;;0.83;0.83;;;21.20;99.90;;;21.56;nan;100598.66;5025098;28;20668;-69
2023/07/16 04:30:48;;;;;;;2.03;1.30;;;21.20;99.90;;;21.50;nan;100591.41;5008991;28;20610;-69
2023/07/16 04:33:15;;;;;;;1.60;1.07;;;21.10;99.90;;;21.45;nan;100597.25;5022796;28;20635;-70
2023/07/16 04:35:42;;;;;;;1.00;1.00;;;21.10;99.90;;;21.47;nan;100595.25;5025059;28;20655;-70
2023/07/16 04:38:09;;;;;;;0.83;0.83;;;21.10;99.90;;;21.52;nan;100598.19;5041441;28;20655;-70
2023/07/16 04:40:36;;;;;;;0.90;0.77;;;21.10;99.90;;;21.56;nan;100594.16;5027635;28;20639;-70
2023/07/16 04:43:03;;;;;;;1.83;1.10;;;21.20;99.90;;;21.55;nan;100597.81;5013714;28;20684;-70
2023/07/16 04:45:30;;;;;;;0.90;0.90;;;21.20;99.90;;;21.46;nan;100600.75;5009536;28;20617;-71
2023/07/16 04:47:59;;;;;;;0.57;0.57;;;21.10;99.90;;;21.44;nan;100598.28;5010704;28;20664;-70
2023/07/16 04:50:26;;;;;;;1.40;0.97;;;21.10;99.90;;;21.58;nan;100610.75;5019858;28;20601;-70
2023/07/16 04:52:53;;;;;;;1.73;1.13;;;21.20;99.90;;;21.62;nan;100616.50;5012257;28;20637;-69
2023/07/16 04:55:19;;;;;;;1.77;1.17;;;21.30;99.90;;;21.56;nan;100618.06;5020898;28;20671;-69
2023/07/16 04:57:46;;;;;;;0.97;0.83;;;21.30;99.90;;;21.52;nan;100608.81;5008637;28;21227;-71
2023/07/16 05:00:14;;;;;;;1.17;0.80;;;21.20;99.90;;;21.66;nan;100628.41;5022417;28;20636;-71
2023/07/16 05:02:41;;;;;;;0.90;0.80;;;21.30;99.90;;;21.71;nan;100631.34;5029130;28;20972;-70
2023/07/16 05:05:08;;;;;;;0.90;0.90;;;21.30;99.90;;;21.62;nan;100627.94;5027813;28;20632;-71
2023/07/16 05:07:35;;;;;;;6.13;0.80;;;21.30;99.90;;;21.69;nan;100632.53;5024894;28;20639;-69
2023/07/16 05:10:02;;;;;;;0.73;0.73;;;21.30;99.90;;;21.81;nan;100639.03;5026193;28;20629;-71
2023/07/16 05:12:29;;;;;;;0.67;0.67;;;21.40;99.90;;;21.91;nan;100640.47;5029057;28;20636;-70
2023/07/16 05:14:56;;;;;;;0.80;0.80;;;21.50;99.90;;;22.22;nan;100650.88;5023912;28;20643;-71
2023/07/16 05:17:23;;;;;;;0.77;0.67;;;21.70;99.90;;;22.41;nan;100658.28;5030699;28;20644;-69
2023/07/16 05:19:50;;;;;;;2.00;1.27;;;22.00;99.90;;;22.51;nan;100660.69;5023818;28;20645;-71
2023/07/16 05:22:17;;;;;;;1.53;0.90;;;22.10;99.90;;;22.76;nan;100660.19;5009945;28;20594;-70
2023/07/16 05:24:44;;;;;;;1.17;1.07;;;22.30;99.90;;;23.03;nan;100655.94;5009645;28;20649;-69
2023/07/16 05:27:11;;;;;;;0.63;0.63;;;22.60;99.90;;;23.18;nan;100654.03;5021959;28;20624;-70
2023/07/16 05:29:38;;;;;;;0.93;0.93;;;22.80;99.90;;;23.28;nan;100656.38;5025858;28;21304;-71
2023/07/16 05:32:06;;;;;;;3.47;0.97;;;22.90;99.90;;;23.43;nan;100667.78;5020056;28;20636;-71
2023/07/16 05:34:33;;;;;;;0.77;0.77;;;23.00;99.90;;;23.55;nan;100666.28;5018056;28;20640;-75
2023/07/16 05:37:00;;;;;;;0.80;0.80;;;23.20;99.90;;;23.72;nan;100664.97;5027163;28;20653;-73
2023/07/16 05:39:27;;;;;;;0.90;0.90;;;23.30;99.90;;;23.91;nan;100658.94;5025735;28;20661;-71
2023/07/16 05:41:54;;;;;;;2.73;1.43;;;23.50;99.90;;;24.25;nan;100666.13;5015370;28;20629;-70
2023/07/16 05:44:21;;;;;;;1.27;1.20;;;23.80;99.90;;;24.61;nan;100675.53;5014267;28;20628;-71
2023/07/16 05:46:48;;;;;;;2.83;0.90;;;24.10;99.90;;;24.85;nan;100676.03;5016648;28;20630;-71
2023/07/16 05:49:15;;;;;;;1.83;1.07;;;24.40;99.90;;;25.07;nan;100669.50;5012218;28;20676;-71
2023/07/16 05:51:42;;;;;;;0.70;0.70;;;24.60;99.90;;;25.31;nan;100674.25;5014740;28;20632;-69
2023/07/16 05:54:09;;;;;;;2.63;1.50;;;24.90;99.90;;;25.59;nan;100674.91;5012553;28;20648;-71
2023/07/16 05:56:36;;;;;;;0.83;0.83;;;25.20;99.90;;;25.72;nan;100672.22;5025504;28;20668;-70
2023/07/16 05:59:03;;;;;;;2.67;1.20;;;25.30;99.90;;;25.68;nan;100673.66;5029535;28;20675;-70
2023/07/16 06:01:30;;;;;;;0.80;0.80;;;25.30;99.90;;;25.74;nan;100669.34;5028872;28;20960;-70
2023/07/16 06:03:57;;;;;;;0.70;0.70;;;25.40;99.90;;;25.84;nan;100670.56;5024242;28;20632;-71
2023/07/16 06:06:28;;;;;;;1.10;1.00;;;25.50;99.90;;;25.78;nan;100676.72;5028176;28;20630;-70
2023/07/16 06:08:55;;;;;;;1.10;0.83;;;25.40;99.90;;;25.88;nan;100677.13;5017858;28;20666;-70
2023/07/16 06:11:22;;;;;;;1.10;1.10;;;25.40;99.90;;;26.23;nan;100679.53;5016046;28;20652;-71
2023/07/16 06:13:49;;;;;;;1.10;1.00;;;25.70;99.90;;;26.41;nan;100680.50;5006463;28;21055;-71
2023/07/16 06:16:16;;;;;;;3.70;1.60;;;25.90;99.90;;;26.69;nan;100688.19;5010870;28;20661;-69
2023/07/16 06:18:43;;;;;;;1.00;1.00;;;26.20;99.90;;;27.27;nan;100689.72;5009179;28;20821;-70
2023/07/16 06:21:10;;;;;;;1.73;1.00;;;26.70;99.90;;;27.72;nan;100684.22;5015678;28;21046;-69
2023/07/16 06:23:38;;;;;;;2.27;1.80;;;27.10;99.70;;;28.11;nan;100682.00;5024418;28;20632;-70
2023/07/16 06:26:05;;;;;;;1.40;1.30;;;27.50;98.90;;;28.57;nan;100692.22;5027001;28;20616;-71
2023/07/16 06:28:32;;;;;;;1.73;1.63;;;27.90;97.90;;;29.16;nan;100686.03;5027200;28;20649;-71
2023/07/16 06:30:59;;;;;;;2.80;0.80;;;28.50;96.80;;;29.59;nan;100685.78;5018744;28;20999;-70
2023/07/16 06:33:28;;;;;;;1.17;1.10;;;28.90;95.40;;;29.74;nan;100695.06;5029115;28;20652;-68
2023/07/16 06:35:55;;;;;;;1.00;1.00;;;29.20;93.60;;;29.57;nan;100698.63;5021656;28;20636;-71
2023/07/16 06:38:22;;;;;;;3.00;1.30;;;29.20;92.70;;;29.27;nan;100697.88;5026105;28;20668;-71
2023/07/16 06:40:51;;;;;;;2.30;1.50;;;28.90;92.20;;;29.07;nan;100696.28;5019346;28;20646;-72
2023/07/16 06:43:18;;;;;;;1.17;1.17;;;28.70;91.70;;;29.18;nan;100704.66;5029960;28;20616;-67
2023/07/16 06:45:45;;;;;;;1.20;1.20;;;28.80;91.00;;;29.49;nan;100690.91;5025079;28;20647;-70
2023/07/16 06:48:12;;;;;;;0.90;0.90;;;29.10;90.30;;;29.68;nan;100695.13;5026382;28;20664;-71
2023/07/16 06:50:39;;;;;;;1.20;1.10;;;29.30;89.90;;;29.87;nan;100704.75;5014984;28;20645;-70
2023/07/16 06:53:06;;;;;;;2.50;1.67;;;29.40;88.60;;;30.24;nan;100703.41;5025453;28;20618;-70
2023/07/16 06:55:33;;;;;;;1.60;1.50;;;29.80;87.10;;;30.77;nan;100710.44;5022622;28;20657;-71
2023/07/16 06:58:01;;;;;;;1.80;1.20;;;30.30;85.20;;;30.32;nan;100707.66;5022107;28;20696;-71
2023/07/16 07:00:28;;;;;;;2.17;1.30;;;30.10;83.90;;;30.74;nan;100700.16;5027178;28;20636;-71
2023/07/16 07:02:55;;;;;;;1.60;1.50;;;30.30;83.00;;;31.22;nan;100705.94;5024516;28;20659;-70
2023/07/16 07:05:22;;;;;;;1.60;1.50;;;30.80;81.90;;;32.04;nan;100707.81;5018227;28;20637;-71
2023/07/16 07:07:49;;;;;;;1.17;1.07;;;31.50;79.40;;;32.77;nan;100696.63;5009715;28;20680;-71
2023/07/16 07:10:16;;;;;;;4.77;0.90;;;32.30;75.20;;;33.08;nan;100711.25;5016030;28;20668;-71
2023/07/16 07:12:43;;;;;;;1.90;1.60;;;32.60;73.10;;;33.61;nan;100702.28;5024198;28;20702;-70
2023/07/16 07:15:10;;;;;;;2.97;1.57;;;33.10;70.40;;;33.94;nan;100709.25;5022100;28;20641;-71
2023/07/16 07:17:40;;;;;;;1.73;1.40;;;33.40;69.40;;;34.50;nan;100716.63;5009924;28;20698;-69
2023/07/16 07:20:07;;;;;;;1.60;1.50;;;33.90;68.20;;;34.76;nan;100721.06;5022728;28;20620;-69
2023/07/16 07:22:34;;;;;;;1.90;1.77;;;34.20;65.80;;;34.83;nan;100718.91;5024941;28;20637;-69
2023/07/16 07:25:02;;;;;;;1.00;0.87;;;34.40;63.80;;;34.30;nan;100716.53;5011145;28;20695;-69
2023/07/16 07:27:29;;;;;;;1.23;1.23;;;34.00;63.00;;;33.49;nan;100702.44;5017413;28;20654;-69
2023/07/16 07:29:56;;;;;;;1.00;1.00;;;33.10;64.10;;;33.29;nan;100713.06;5015738;28;20653;-68
2023/07/16 07:32:23;;;;;;;1.60;1.20;;;32.90;63.80;;;33.75;nan;100702.66;5017714;28;20667;-71
2023/07/16 07:34:50;;;;;;;3.90;1.30;;;33.10;64.20;;;34.28;nan;100710.56;5019539;28;20644;-68
2023/07/16 07:37:17;;;;;;;1.30;1.30;;;33.60;62.90;;;35.00;nan;100718.69;5011519;28;20681;-68
2023/07/16 07:39:52;;;;;;;1.47;1.33;;;34.20;62.20;;;35.33;nan;100715.47;5020857;28;20645;-68
2023/07/16 07:42:19;;;;;;;1.13;1.13;;;34.60;60.90;;;35.41;nan;100720.38;5013297;28;20636;-68
2023/07/16 07:44:48;;;;;;;1.50;1.40;;;34.70;60.50;;;35.45;nan;100729.59;5021287;28;20643;-68
2023/07/16 07:47:15;;;;;;;1.60;1.50;;;34.70;60.30;;;35.66;nan;100727.69;5019816;28;20656;-68
2023/07/16 07:49:42;;;;;;;1.20;1.10;;;35.00;59.30;;;35.79;nan;100719.00;5027312;28;21032;-67
2023/07/16 07:52:09;;;;;;;1.30;1.20;;;35.00;58.80;;;35.57;nan;100729.34;5028961;28;21208;-67
2023/07/16 07:54:36;;;;;;;1.30;1.20;;;34.90;58.50;;;34.17;nan;100715.13;5024316;28;20671;-68
2023/07/16 07:57:05;;;;;;;1.97;1.27;;;33.80;59.20;;;32.73;nan;100716.28;5025388;28;21215;-68
2023/07/16 07:59:32;;;;;;;1.03;0.93;;;32.50;60.40;;;31.20;nan;100708.84;5012524;28;20672;-67
2023/07/16 08:02:01;;;;;;;1.50;1.40;;;31.10;62.00;;;30.52;nan;100708.88;5025029;28;21199;-67
2023/07/16 08:04:31;;;;;;;2.03;1.33;;;30.20;63.70;;;30.30;nan;100707.91;5011430;28;20987;-70
2023/07/16 08:06:59;;;;;;;1.80;1.53;;;29.80;64.80;;;30.16;nan;100703.78;5021136;28;20637;-68
2023/07/16 08:09:27;;;;;;;1.03;1.00;;;29.60;65.30;;;30.03;nan;100708.63;5011563;28;21435;-68
2023/07/16 08:11:54;;;;;;;1.47;1.20;;;29.50;65.30;;;29.68;nan;100703.19;5014518;28;20640;-68
2023/07/16 08:14:21;;;;;;;1.30;1.20;;;29.10;66.30;;;29.64;nan;100702.84;5023865;28;21208;-68
2023/07/16 08:16:48;;;;;;;1.40;1.30;;;29.00;67.40;;;29.32;nan;100714.13;5019835;28;20707;-67
2023/07/16 08:19:15;;;;;;;2.13;1.50;;;28.90;67.00;;;28.84;nan;100708.78;5027556;28;20682;-69
2023/07/16 08:21:43;;;;;;;2.50;1.23;;;28.30;67.80;;;28.46;nan;100711.75;5010549;28;20633;-65
2023/07/16 08:24:10;;;;;;;2.60;1.70;;;28.00;68.20;;;28.14;nan;100704.88;5025660;28;20601;-68
2023/07/16 08:26:37;;;;;;;1.00;1.00;;;27.70;69.00;;;27.81;nan;100710.56;5012910;28;20640;-69
2023/07/16 08:29:04;;;;;;;1.10;1.10;;;27.40;68.80;;;27.54;nan;100712.63;5027132;28;21255;-69
2023/07/16 08:31:32;;;;;;;1.00;1.00;;;27.10;69.30;;;27.34;nan;100711.94;5018928;28;20641;-69
2023/07/16 08:33:59;;;;;;;1.00;0.83;;;26.80;70.30;;;27.09;nan;100713.75;5023305;28;20646;-67
2023/07/16 08:36:28;;;;;;;1.70;1.60;;;26.70;70.90;;;26.97;nan;100715.47;5019107;28;20636;-69
2023/07/16 08:38:55;;;;;;;1.37;1.17;;;26.40;71.30;;;27.11;nan;100710.88;5016358;28;21048;-69
2023/07/16 08:41:22;;;;;;;2.60;1.50;;;26.50;72.40;;;27.27;nan;100713.03;5019823;28;20605;-68
2023/07/16 08:43:50;;;;;;;2.67;1.07;;;26.70;72.60;;;27.35;nan;100721.66;5021231;28;20637;-68
2023/07/16 08:46:17;;;;;;;2.50;1.20;;;26.80;72.00;;;27.13;nan;100706.91;5020899;28;20620;-69
2023/07/16 08:48:45;;;;;;;1.87;1.17;;;26.60;72.70;;;26.87;nan;100715.94;5018158;28;20673;-68
2023/07/16 08:51:18;;;;;;;1.20;1.20;;;26.40;73.70;;;26.58;nan;100710.28;5024454;28;20632;-69
2023/07/16 08:53:45;;;;;;;9.10;1.37;;;26.10;73.90;;;26.35;nan;100709.94;5019338;28;21215;-68
2023/07/16 08:56:12;;;;;;;2.60;1.17;;;25.90;74.10;;;26.27;nan;100708.34;5011093;28;21215;-69
2023/07/16 08:58:41;;;;;;;1.03;1.03;;;25.80;74.50;;;26.55;nan;100708.03;5017685;28;20673;-69
2023/07/16 09:01:10;;;;;;;1.67;1.30;;;25.90;74.80;;;26.92;nan;100711.81;5007249;28;20644;-68
2023/07/16 09:03:37;;;;;;;0.97;0.97;;;26.30;74.60;;;27.13;nan;100706.91;5007597;28;20656;-69
2023/07/16 09:06:05;;;;;;;2.83;1.43;;;26.50;73.20;;;27.34;nan;100709.28;5019339;28;20995;-70
2023/07/16 09:08:32;;;;;;;1.00;0.90;;;26.70;73.00;;;27.45;nan;100721.19;5019727;28;21070;-69
2023/07/16 09:10:59;;;;;;;1.40;1.27;;;26.80;73.30;;;27.60;nan;100717.13;5015666;28;20611;-69
2023/07/16 09:13:27;;;;;;;2.00;0.97;;;26.90;73.30;;;27.78;nan;100710.16;5022226;28;20633;-69
2023/07/16 09:15:58;;;;;;;1.87;1.10;;;27.10;73.70;;;27.82;nan;100719.41;5030330;28;20631;-68
2023/07/16 09:18:27;;;;;;;2.70;1.37;;;27.20;72.60;;;27.63;nan;100716.69;5028394;28;20688;-68
2023/07/16 09:21:01;;;;;;;1.00;1.00;;;27.10;72.40;;;27.61;nan;100716.09;5012781;28;20975;-69
2023/07/16 09:23:31;;;;;;;1.13;1.13;;;27.00;72.70;;;27.60;nan;100719.78;5009229;28;20625;-68
2023/07/16 09:25:58;;;;;;;1.37;1.10;;;27.00;73.20;;;27.56;nan;100721.28;5025780;28;20620;-69
2023/07/16 09:28:26;;;;;;;2.07;1.50;;;27.00;72.90;;;27.59;nan;100712.81;5020588;28;20667;-68
2023/07/16 09:30:53;;;;;;;0.80;0.80;;;27.00;72.70;;;27.73;nan;100718.84;5017237;28;20637;-68
2023/07/16 09:33:25;;;;;;;1.23;1.13;;;27.10;72.70;;;27.83;nan;100710.31;5022730;28;20645;-68
2023/07/16 09:35:52;;;;;;;1.13;1.00;;;27.20;71.70;;;27.87;nan;100707.00;5013683;28;20637;-69
2023/07/16 09:38:20;;;;;;;1.10;1.00;;;27.30;70.60;;;27.76;nan;100717.59;5012786;28;20711;-69
2023/07/16 09:40:47;;;;;;;3.90;1.37;;;27.20;70.20;;;27.62;nan;100714.22;5011657;28;20685;-68
2023/07/16 09:43:15;;;;;;;1.20;1.10;;;27.10;70.90;;;27.51;nan;100709.56;5028557;28;20671;-68
2023/07/16 09:45:42;;;;;;;1.10;1.10;;;27.00;70.60;;;27.44;nan;100723.03;5027259;28;21273;-69
2023/07/16 09:48:10;;;;;;;1.20;1.10;;;26.90;70.20;;;27.36;nan;100723.31;5026035;28;20663;-69
2023/07/16 09:50:43;;;;;;;1.93;0.87;;;26.90;70.30;;;27.29;nan;100719.81;5011063;28;20637;-69
2023/07/16 09:53:11;;;;;;;1.30;1.20;;;26.80;70.60;;;27.26;nan;100722.91;5011747;28;20613;-68
2023/07/16 09:55:39;;;;;;;1.10;1.00;;;26.70;71.00;;;27.14;nan;100719.28;5016514;28;20656;-67
2023/07/16 09:58:12;;;;;;;1.20;1.20;;;26.70;71.40;;;27.02;nan;100704.13;5029812;28;20677;-68
2023/07/16 10:00:40;;;;;;;2.13;1.20;;;26.50;71.70;;;26.83;nan;100705.88;5021775;28;20645;-67
2023/07/16 10:03:08;;;;;;;1.40;1.30;;;26.40;71.30;;;26.77;nan;100702.19;5002105;28;21180;-67
2023/07/16 10:05:37;;;;;;;1.33;1.20;;;26.30;71.40;;;26.81;nan;100707.94;5018275;28;21196;-68
2023/07/16 10:08:05;;;;;;;1.60;1.50;;;26.30;72.40;;;26.86;nan;100702.75;5031517;28;21426;-69
2023/07/16 10:10:43;;;;;;;0.83;0.83;;;26.30;72.30;;;26.92;nan;100704.56;5014963;28;20699;-67
2023/07/16 10:13:14;;;;;;;1.20;1.10;;;26.40;69.10;;;26.84;nan;100707.50;5021922;28;21135;-69
2023/07/16 10:15:58;;;;;;;1.03;1.03;;;26.40;69.00;;;26.85;nan;100704.59;5017442;28;20649;-69
2023/07/16 10:18:33;;;;;;;1.13;1.13;;;26.30;70.30;;;26.86;nan;100702.75;5026896;28;20672;-67
2023/07/16 10:21:06;;;;;;;1.10;0.90;;;26.40;69.80;;;26.79;nan;100705.47;5010012;28;20609;-68
2023/07/16 10:23:43;;;;;;;1.53;1.20;;;26.30;68.60;;;26.81;nan;100705.28;5025430;28;21214;-68
2023/07/16 10:26:15;;;;;;;1.03;0.60;;;26.20;69.30;;;26.78;nan;100705.69;5018678;28;20629;-70
2023/07/16 10:28:46;;;;;;;0.80;0.80;;;26.30;69.70;;;26.53;nan;100697.56;5011745;28;21036;-70